sensor_id;sensor_type;location;lat;lon;timestamp;P1;P2;P0
70691;PMS5003;58267;51.156;17.044;2024-01-27T00:00:25;4;4;
70691;PMS5003;58267;51.156;17.044;2024-01-27T00:02:51;2;2;
70691;PMS5003;58267;51.156;17.044;2024-01-27T00:05:15;3;3;
70691;PMS5003;58267;51.156;17.044;2024-01-27T00:07:41;4;4;
70691;PMS5003;58267;51.156;17.044;2024-01-27T00:10:06;5;4;
70691;PMS5003;58267;51.156;17.044;2024-01-27T00:12:32;2;2;
70691;PMS5003;58267;51.156;17.044;2024-01-27T00:14:57;4;4;
70691;PMS5003;58267;51.156;17.044;2024-01-27T00:17:22;5;4;
70691;PMS5003;58267;51.156;17.044;2024-01-27T00:19:47;1;0;
70691;PMS5003;58267;51.156;17.044;2024-01-27T00:22:13;8;3;
70691;PMS5003;58267;51.156;17.044;2024-01-27T00:24:38;4;3;
70691;PMS5003;58267;51.156;17.044;2024-01-27T00:27:03;5;5;
70691;PMS5003;58267;51.156;17.044;2024-01-27T00:29:28;3;3;
70691;PMS5003;58267;51.156;17.044;2024-01-27T00:31:54;2;2;
70691;PMS5003;58267;51.156;17.044;2024-01-27T00:34:19;4;2;
70691;PMS5003;58267;51.156;17.044;2024-01-27T00:36:45;1;1;
70691;PMS5003;58267;51.156;17.044;2024-01-27T00:39:11;4;3;
70691;PMS5003;58267;51.156;17.044;2024-01-27T00:41:36;2;1;
70691;PMS5003;58267;51.156;17.044;2024-01-27T00:44:02;3;3;
70691;PMS5003;58267;51.156;17.044;2024-01-27T00:46:27;5;4;
70691;PMS5003;58267;51.156;17.044;2024-01-27T00:48:53;2;2;
70691;PMS5003;58267;51.156;17.044;2024-01-27T00:51:18;3;3;
70691;PMS5003;58267;51.156;17.044;2024-01-27T00:53:44;3;3;
70691;PMS5003;58267;51.156;17.044;2024-01-27T00:56:09;1;1;
70691;PMS5003;58267;51.156;17.044;2024-01-27T00:58:34;2;2;
70691;PMS5003;58267;51.156;17.044;2024-01-27T01:01:00;3;3;
70691;PMS5003;58267;51.156;17.044;2024-01-27T01:03:25;2;2;
70691;PMS5003;58267;51.156;17.044;2024-01-27T01:05:51;4;3;
70691;PMS5003;58267;51.156;17.044;2024-01-27T01:08:16;2;2;
70691;PMS5003;58267;51.156;17.044;2024-01-27T01:10:41;4;2;
70691;PMS5003;58267;51.156;17.044;2024-01-27T01:13:06;3;3;
70691;PMS5003;58267;51.156;17.044;2024-01-27T01:15:31;3;2;
70691;PMS5003;58267;51.156;17.044;2024-01-27T01:17:57;8;4;
70691;PMS5003;58267;51.156;17.044;2024-01-27T01:20:22;4;3;
70691;PMS5003;58267;51.156;17.044;2024-01-27T01:22:48;5;5;
70691;PMS5003;58267;51.156;17.044;2024-01-27T01:25:13;2;2;
70691;PMS5003;58267;51.156;17.044;2024-01-27T01:27:38;4;2;
70691;PMS5003;58267;51.156;17.044;2024-01-27T01:30:03;3;3;
70691;PMS5003;58267;51.156;17.044;2024-01-27T01:32:28;2;2;
70691;PMS5003;58267;51.156;17.044;2024-01-27T01:34:54;5;4;
70691;PMS5003;58267;51.156;17.044;2024-01-27T01:37:19;5;3;
70691;PMS5003;58267;51.156;17.044;2024-01-27T01:39:45;4;3;
70691;PMS5003;58267;51.156;17.044;2024-01-27T01:42:10;4;4;
70691;PMS5003;58267;51.156;17.044;2024-01-27T01:44:36;4;3;
70691;PMS5003;58267;51.156;17.044;2024-01-27T01:47:01;4;3;
70691;PMS5003;58267;51.156;17.044;2024-01-27T01:49:26;2;2;
70691;PMS5003;58267;51.156;17.044;2024-01-27T01:51:51;4;3;
70691;PMS5003;58267;51.156;17.044;2024-01-27T01:54:16;4;4;
70691;PMS5003;58267;51.156;17.044;2024-01-27T01:56:42;3;3;
70691;PMS5003;58267;51.156;17.044;2024-01-27T01:59:07;3;3;
70691;PMS5003;58267;51.156;17.044;2024-01-27T02:01:33;4;3;
70691;PMS5003;58267;51.156;17.044;2024-01-27T02:03:58;4;3;
70691;PMS5003;58267;51.156;17.044;2024-01-27T02:06:23;2;1;
70691;PMS5003;58267;51.156;17.044;2024-01-27T02:08:48;4;3;
70691;PMS5003;58267;51.156;17.044;2024-01-27T02:11:14;2;2;
70691;PMS5003;58267;51.156;17.044;2024-01-27T02:13:39;4;3;
70691;PMS5003;58267;51.156;17.044;2024-01-27T02:16:04;3;2;
70691;PMS5003;58267;51.156;17.044;2024-01-27T02:18:30;3;3;
70691;PMS5003;58267;51.156;17.044;2024-01-27T02:20:56;2;2;
70691;PMS5003;58267;51.156;17.044;2024-01-27T02:23:21;5;4;
70691;PMS5003;58267;51.156;17.044;2024-01-27T02:25:46;5;3;
70691;PMS5003;58267;51.156;17.044;2024-01-27T02:28:11;2;2;
70691;PMS5003;58267;51.156;17.044;2024-01-27T02:30:40;4;3;
70691;PMS5003;58267;51.156;17.044;2024-01-27T02:33:02;2;2;
70691;PMS5003;58267;51.156;17.044;2024-01-27T02:35:27;5;5;
70691;PMS5003;58267;51.156;17.044;2024-01-27T02:37:52;6;6;
70691;PMS5003;58267;51.156;17.044;2024-01-27T02:40:18;2;2;
70691;PMS5003;58267;51.156;17.044;2024-01-27T02:42:43;3;3;
70691;PMS5003;58267;51.156;17.044;2024-01-27T02:45:09;2;2;
70691;PMS5003;58267;51.156;17.044;2024-01-27T02:47:33;4;4;
70691;PMS5003;58267;51.156;17.044;2024-01-27T02:49:59;3;2;
70691;PMS5003;58267;51.156;17.044;2024-01-27T02:52:24;2;2;
70691;PMS5003;58267;51.156;17.044;2024-01-27T02:54:49;2;2;
70691;PMS5003;58267;51.156;17.044;2024-01-27T02:57:14;3;2;
70691;PMS5003;58267;51.156;17.044;2024-01-27T02:59:39;4;3;
70691;PMS5003;58267;51.156;17.044;2024-01-27T03:02:05;2;1;
70691;PMS5003;58267;51.156;17.044;2024-01-27T03:04:30;4;3;
70691;PMS5003;58267;51.156;17.044;2024-01-27T03:06:55;5;3;
70691;PMS5003;58267;51.156;17.044;2024-01-27T03:09:20;6;4;
70691;PMS5003;58267;51.156;17.044;2024-01-27T03:11:45;3;3;
70691;PMS5003;58267;51.156;17.044;2024-01-27T03:14:11;4;3;
70691;PMS5003;58267;51.156;17.044;2024-01-27T03:16:36;4;2;
70691;PMS5003;58267;51.156;17.044;2024-01-27T03:19:01;4;4;
70691;PMS5003;58267;51.156;17.044;2024-01-27T03:21:26;4;3;
70691;PMS5003;58267;51.156;17.044;2024-01-27T03:23:52;4;4;
70691;PMS5003;58267;51.156;17.044;2024-01-27T03:26:17;3;2;
70691;PMS5003;58267;51.156;17.044;2024-01-27T03:28:43;3;3;
70691;PMS5003;58267;51.156;17.044;2024-01-27T03:31:08;3;2;
70691;PMS5003;58267;51.156;17.044;2024-01-27T03:33:33;4;4;
70691;PMS5003;58267;51.156;17.044;2024-01-27T03:35:58;3;2;
70691;PMS5003;58267;51.156;17.044;2024-01-27T03:38:24;4;4;
70691;PMS5003;58267;51.156;17.044;2024-01-27T03:40:49;2;2;
70691;PMS5003;58267;51.156;17.044;2024-01-27T03:43:16;5;4;
70691;PMS5003;58267;51.156;17.044;2024-01-27T03:45:41;3;1;
70691;PMS5003;58267;51.156;17.044;2024-01-27T03:48:06;5;4;
70691;PMS5003;58267;51.156;17.044;2024-01-27T03:50:32;4;3;
70691;PMS5003;58267;51.156;17.044;2024-01-27T03:52:57;4;3;
70691;PMS5003;58267;51.156;17.044;2024-01-27T03:55:22;2;2;
70691;PMS5003;58267;51.156;17.044;2024-01-27T03:57:57;3;2;
70691;PMS5003;58267;51.156;17.044;2024-01-27T04:00:13;3;2;
70691;PMS5003;58267;51.156;17.044;2024-01-27T04:02:38;3;3;
70691;PMS5003;58267;51.156;17.044;2024-01-27T04:05:03;4;2;
70691;PMS5003;58267;51.156;17.044;2024-01-27T04:07:28;4;4;
70691;PMS5003;58267;51.156;17.044;2024-01-27T04:09:53;4;4;
70691;PMS5003;58267;51.156;17.044;2024-01-27T04:12:18;2;2;
70691;PMS5003;58267;51.156;17.044;2024-01-27T04:14:44;3;3;
70691;PMS5003;58267;51.156;17.044;2024-01-27T04:17:09;3;3;
70691;PMS5003;58267;51.156;17.044;2024-01-27T04:19:35;4;3;
70691;PMS5003;58267;51.156;17.044;2024-01-27T04:22:00;3;3;
70691;PMS5003;58267;51.156;17.044;2024-01-27T04:24:26;4;4;
70691;PMS5003;58267;51.156;17.044;2024-01-27T04:26:51;5;4;
70691;PMS5003;58267;51.156;17.044;2024-01-27T04:29:16;3;3;
70691;PMS5003;58267;51.156;17.044;2024-01-27T04:31:41;3;2;
70691;PMS5003;58267;51.156;17.044;2024-01-27T04:34:07;1;0;
70691;PMS5003;58267;51.156;17.044;2024-01-27T04:36:32;3;1;
70691;PMS5003;58267;51.156;17.044;2024-01-27T04:38:57;4;3;
70691;PMS5003;58267;51.156;17.044;2024-01-27T04:41:22;3;3;
70691;PMS5003;58267;51.156;17.044;2024-01-27T04:43:47;3;2;
70691;PMS5003;58267;51.156;17.044;2024-01-27T04:46:13;6;4;
70691;PMS5003;58267;51.156;17.044;2024-01-27T04:48:38;3;3;
70691;PMS5003;58267;51.156;17.044;2024-01-27T04:51:03;2;2;
70691;PMS5003;58267;51.156;17.044;2024-01-27T04:53:28;5;5;
70691;PMS5003;58267;51.156;17.044;2024-01-27T04:55:53;5;3;
70691;PMS5003;58267;51.156;17.044;2024-01-27T04:58:19;2;1;
70691;PMS5003;58267;51.156;17.044;2024-01-27T05:00:44;2;2;
70691;PMS5003;58267;51.156;17.044;2024-01-27T05:03:09;2;2;
70691;PMS5003;58267;51.156;17.044;2024-01-27T05:05:34;3;3;
70691;PMS5003;58267;51.156;17.044;2024-01-27T05:08:00;3;3;
70691;PMS5003;58267;51.156;17.044;2024-01-27T05:10:25;4;3;
70691;PMS5003;58267;51.156;17.044;2024-01-27T05:12:51;5;4;
70691;PMS5003;58267;51.156;17.044;2024-01-27T05:15:16;2;2;
70691;PMS5003;58267;51.156;17.044;2024-01-27T05:17:42;3;3;
70691;PMS5003;58267;51.156;17.044;2024-01-27T05:20:07;4;4;
70691;PMS5003;58267;51.156;17.044;2024-01-27T05:22:32;3;3;
70691;PMS5003;58267;51.156;17.044;2024-01-27T05:24:58;3;3;
70691;PMS5003;58267;51.156;17.044;2024-01-27T05:27:23;2;1;
70691;PMS5003;58267;51.156;17.044;2024-01-27T05:29:49;5;5;
70691;PMS5003;58267;51.156;17.044;2024-01-27T05:32:14;4;3;
70691;PMS5003;58267;51.156;17.044;2024-01-27T05:34:39;4;4;
70691;PMS5003;58267;51.156;17.044;2024-01-27T05:37:05;5;4;
70691;PMS5003;58267;51.156;17.044;2024-01-27T05:39:31;5;4;
70691;PMS5003;58267;51.156;17.044;2024-01-27T05:41:56;5;5;
70691;PMS5003;58267;51.156;17.044;2024-01-27T05:44:22;5;5;
70691;PMS5003;58267;51.156;17.044;2024-01-27T05:46:47;6;5;
70691;PMS5003;58267;51.156;17.044;2024-01-27T05:49:13;7;6;
70691;PMS5003;58267;51.156;17.044;2024-01-27T05:51:38;6;6;
70691;PMS5003;58267;51.156;17.044;2024-01-27T05:54:03;3;3;
70691;PMS5003;58267;51.156;17.044;2024-01-27T05:56:28;2;2;
70691;PMS5003;58267;51.156;17.044;2024-01-27T05:58:53;3;3;
70691;PMS5003;58267;51.156;17.044;2024-01-27T06:01:19;4;4;
70691;PMS5003;58267;51.156;17.044;2024-01-27T06:03:44;5;5;
70691;PMS5003;58267;51.156;17.044;2024-01-27T06:06:10;5;5;
70691;PMS5003;58267;51.156;17.044;2024-01-27T06:08:35;6;3;
70691;PMS5003;58267;51.156;17.044;2024-01-27T06:11:00;10;8;
70691;PMS5003;58267;51.156;17.044;2024-01-27T06:13:26;4;3;
70691;PMS5003;58267;51.156;17.044;2024-01-27T06:15:51;3;3;
70691;PMS5003;58267;51.156;17.044;2024-01-27T06:18:16;3;3;
70691;PMS5003;58267;51.156;17.044;2024-01-27T06:20:41;3;3;
70691;PMS5003;58267;51.156;17.044;2024-01-27T06:23:07;4;3;
70691;PMS5003;58267;51.156;17.044;2024-01-27T06:25:32;3;3;
70691;PMS5003;58267;51.156;17.044;2024-01-27T06:27:58;4;3;
70691;PMS5003;58267;51.156;17.044;2024-01-27T06:30:24;3;3;
70691;PMS5003;58267;51.156;17.044;2024-01-27T06:32:49;4;3;
70691;PMS5003;58267;51.156;17.044;2024-01-27T06:35:14;3;2;
70691;PMS5003;58267;51.156;17.044;2024-01-27T06:37:40;4;4;
70691;PMS5003;58267;51.156;17.044;2024-01-27T06:40:06;4;4;
70691;PMS5003;58267;51.156;17.044;2024-01-27T06:42:31;3;2;
70691;PMS5003;58267;51.156;17.044;2024-01-27T06:44:56;6;5;
70691;PMS5003;58267;51.156;17.044;2024-01-27T06:47:22;7;5;
70691;PMS5003;58267;51.156;17.044;2024-01-27T06:49:47;3;3;
70691;PMS5003;58267;51.156;17.044;2024-01-27T06:52:12;6;4;
70691;PMS5003;58267;51.156;17.044;2024-01-27T06:54:38;4;4;
70691;PMS5003;58267;51.156;17.044;2024-01-27T06:57:03;3;2;
70691;PMS5003;58267;51.156;17.044;2024-01-27T06:59:29;5;4;
70691;PMS5003;58267;51.156;17.044;2024-01-27T07:01:54;5;4;
70691;PMS5003;58267;51.156;17.044;2024-01-27T07:04:20;4;3;
70691;PMS5003;58267;51.156;17.044;2024-01-27T07:06:45;5;5;
70691;PMS5003;58267;51.156;17.044;2024-01-27T07:09:11;5;4;
70691;PMS5003;58267;51.156;17.044;2024-01-27T07:11:36;3;3;
70691;PMS5003;58267;51.156;17.044;2024-01-27T07:14:01;5;5;
70691;PMS5003;58267;51.156;17.044;2024-01-27T07:16:27;3;3;
70691;PMS5003;58267;51.156;17.044;2024-01-27T07:18:52;1;1;
70691;PMS5003;58267;51.156;17.044;2024-01-27T07:21:18;6;5;
70691;PMS5003;58267;51.156;17.044;2024-01-27T07:23:43;9;6;
70691;PMS5003;58267;51.156;17.044;2024-01-27T07:26:09;4;3;
70691;PMS5003;58267;51.156;17.044;2024-01-27T07:28:34;7;4;
70691;PMS5003;58267;51.156;17.044;2024-01-27T07:31:00;4;4;
70691;PMS5003;58267;51.156;17.044;2024-01-27T07:33:25;7;4;
70691;PMS5003;58267;51.156;17.044;2024-01-27T07:35:50;3;2;
70691;PMS5003;58267;51.156;17.044;2024-01-27T07:38:16;4;4;
70691;PMS5003;58267;51.156;17.044;2024-01-27T07:40:41;6;4;
70691;PMS5003;58267;51.156;17.044;2024-01-27T07:43:06;3;3;
70691;PMS5003;58267;51.156;17.044;2024-01-27T07:45:32;5;3;
70691;PMS5003;58267;51.156;17.044;2024-01-27T07:47:57;4;4;
70691;PMS5003;58267;51.156;17.044;2024-01-27T07:50:22;4;3;
70691;PMS5003;58267;51.156;17.044;2024-01-27T07:52:47;5;4;
70691;PMS5003;58267;51.156;17.044;2024-01-27T07:55:13;4;4;
70691;PMS5003;58267;51.156;17.044;2024-01-27T07:57:38;4;4;
70691;PMS5003;58267;51.156;17.044;2024-01-27T08:00:03;7;6;
70691;PMS5003;58267;51.156;17.044;2024-01-27T08:02:28;5;5;
70691;PMS5003;58267;51.156;17.044;2024-01-27T08:04:53;7;6;
70691;PMS5003;58267;51.156;17.044;2024-01-27T08:07:18;5;4;
70691;PMS5003;58267;51.156;17.044;2024-01-27T08:09:44;3;3;
70691;PMS5003;58267;51.156;17.044;2024-01-27T08:12:09;4;4;
70691;PMS5003;58267;51.156;17.044;2024-01-27T08:14:34;10;6;
70691;PMS5003;58267;51.156;17.044;2024-01-27T08:17:00;7;5;
70691;PMS5003;58267;51.156;17.044;2024-01-27T08:19:26;5;5;
70691;PMS5003;58267;51.156;17.044;2024-01-27T08:21:51;6;5;
70691;PMS5003;58267;51.156;17.044;2024-01-27T08:24:16;4;3;
70691;PMS5003;58267;51.156;17.044;2024-01-27T08:26:42;6;4;
70691;PMS5003;58267;51.156;17.044;2024-01-27T08:29:07;4;4;
70691;PMS5003;58267;51.156;17.044;2024-01-27T08:31:32;5;4;
70691;PMS5003;58267;51.156;17.044;2024-01-27T08:33:57;3;3;
70691;PMS5003;58267;51.156;17.044;2024-01-27T08:36:22;5;4;
70691;PMS5003;58267;51.156;17.044;2024-01-27T08:38:48;8;6;
70691;PMS5003;58267;51.156;17.044;2024-01-27T08:41:13;6;5;
70691;PMS5003;58267;51.156;17.044;2024-01-27T08:43:39;8;5;
70691;PMS5003;58267;51.156;17.044;2024-01-27T08:46:05;4;3;
70691;PMS5003;58267;51.156;17.044;2024-01-27T08:48:30;4;3;
70691;PMS5003;58267;51.156;17.044;2024-01-27T08:50:56;5;5;
70691;PMS5003;58267;51.156;17.044;2024-01-27T08:53:21;5;3;
70691;PMS5003;58267;51.156;17.044;2024-01-27T08:55:46;5;5;
70691;PMS5003;58267;51.156;17.044;2024-01-27T08:58:11;8;8;
70691;PMS5003;58267;51.156;17.044;2024-01-27T09:00:37;5;4;
70691;PMS5003;58267;51.156;17.044;2024-01-27T09:03:02;4;4;
70691;PMS5003;58267;51.156;17.044;2024-01-27T09:05:27;6;6;
70691;PMS5003;58267;51.156;17.044;2024-01-27T09:07:53;5;4;
70691;PMS5003;58267;51.156;17.044;2024-01-27T09:10:18;6;5;
70691;PMS5003;58267;51.156;17.044;2024-01-27T09:12:44;3;3;
70691;PMS5003;58267;51.156;17.044;2024-01-27T09:15:10;5;5;
70691;PMS5003;58267;51.156;17.044;2024-01-27T09:17:35;4;4;
70691;PMS5003;58267;51.156;17.044;2024-01-27T09:20:01;8;6;
70691;PMS5003;58267;51.156;17.044;2024-01-27T09:22:26;8;6;
70691;PMS5003;58267;51.156;17.044;2024-01-27T09:24:51;5;5;
70691;PMS5003;58267;51.156;17.044;2024-01-27T09:27:16;5;4;
70691;PMS5003;58267;51.156;17.044;2024-01-27T09:29:41;5;5;
70691;PMS5003;58267;51.156;17.044;2024-01-27T09:32:07;4;2;
70691;PMS5003;58267;51.156;17.044;2024-01-27T09:34:32;6;5;
70691;PMS5003;58267;51.156;17.044;2024-01-27T09:36:58;10;8;
70691;PMS5003;58267;51.156;17.044;2024-01-27T09:39:23;6;5;
70691;PMS5003;58267;51.156;17.044;2024-01-27T09:41:48;7;5;
70691;PMS5003;58267;51.156;17.044;2024-01-27T09:44:13;5;4;
70691;PMS5003;58267;51.156;17.044;2024-01-27T09:46:39;4;4;
70691;PMS5003;58267;51.156;17.044;2024-01-27T09:49:04;7;6;
70691;PMS5003;58267;51.156;17.044;2024-01-27T09:51:29;4;3;
70691;PMS5003;58267;51.156;17.044;2024-01-27T09:53:54;5;4;
70691;PMS5003;58267;51.156;17.044;2024-01-27T09:56:20;5;4;
70691;PMS5003;58267;51.156;17.044;2024-01-27T09:58:45;8;7;
70691;PMS5003;58267;51.156;17.044;2024-01-27T10:01:10;5;4;
70691;PMS5003;58267;51.156;17.044;2024-01-27T10:03:36;4;4;
70691;PMS5003;58267;51.156;17.044;2024-01-27T10:06:01;7;5;
70691;PMS5003;58267;51.156;17.044;2024-01-27T10:08:26;6;6;
70691;PMS5003;58267;51.156;17.044;2024-01-27T10:10:53;5;5;
70691;PMS5003;58267;51.156;17.044;2024-01-27T10:13:17;4;3;
70691;PMS5003;58267;51.156;17.044;2024-01-27T10:15:43;4;4;
70691;PMS5003;58267;51.156;17.044;2024-01-27T10:18:09;8;6;
70691;PMS5003;58267;51.156;17.044;2024-01-27T10:20:33;6;6;
70691;PMS5003;58267;51.156;17.044;2024-01-27T10:22:59;9;6;
70691;PMS5003;58267;51.156;17.044;2024-01-27T10:25:24;6;4;
70691;PMS5003;58267;51.156;17.044;2024-01-27T10:27:50;5;4;
70691;PMS5003;58267;51.156;17.044;2024-01-27T10:30:16;5;5;
70691;PMS5003;58267;51.156;17.044;2024-01-27T10:32:41;5;4;
70691;PMS5003;58267;51.156;17.044;2024-01-27T10:35:07;6;5;
70691;PMS5003;58267;51.156;17.044;2024-01-27T10:37:31;5;4;
70691;PMS5003;58267;51.156;17.044;2024-01-27T10:40:00;7;6;
70691;PMS5003;58267;51.156;17.044;2024-01-27T10:42:21;6;6;
70691;PMS5003;58267;51.156;17.044;2024-01-27T10:44:52;5;4;
70691;PMS5003;58267;51.156;17.044;2024-01-27T10:47:12;4;4;
70691;PMS5003;58267;51.156;17.044;2024-01-27T10:49:37;6;5;
70691;PMS5003;58267;51.156;17.044;2024-01-27T10:52:03;8;5;
70691;PMS5003;58267;51.156;17.044;2024-01-27T10:54:28;7;6;
70691;PMS5003;58267;51.156;17.044;2024-01-27T10:56:55;5;5;
70691;PMS5003;58267;51.156;17.044;2024-01-27T10:59:19;5;5;
70691;PMS5003;58267;51.156;17.044;2024-01-27T11:01:44;8;6;
70691;PMS5003;58267;51.156;17.044;2024-01-27T11:04:10;5;5;
70691;PMS5003;58267;51.156;17.044;2024-01-27T11:06:34;6;4;
70691;PMS5003;58267;51.156;17.044;2024-01-27T11:09:00;7;6;
70691;PMS5003;58267;51.156;17.044;2024-01-27T11:11:25;4;4;
70691;PMS5003;58267;51.156;17.044;2024-01-27T11:13:50;3;3;
70691;PMS5003;58267;51.156;17.044;2024-01-27T11:16:17;7;5;
70691;PMS5003;58267;51.156;17.044;2024-01-27T11:18:42;6;5;
70691;PMS5003;58267;51.156;17.044;2024-01-27T11:21:12;8;4;
70691;PMS5003;58267;51.156;17.044;2024-01-27T11:23:34;11;10;
70691;PMS5003;58267;51.156;17.044;2024-01-27T11:26:03;4;4;
70691;PMS5003;58267;51.156;17.044;2024-01-27T11:28:25;9;8;
70691;PMS5003;58267;51.156;17.044;2024-01-27T11:30:50;6;5;
70691;PMS5003;58267;51.156;17.044;2024-01-27T11:33:17;5;5;
70691;PMS5003;58267;51.156;17.044;2024-01-27T11:35:41;8;8;
70691;PMS5003;58267;51.156;17.044;2024-01-27T11:38:07;4;4;
70691;PMS5003;58267;51.156;17.044;2024-01-27T11:40:33;8;7;
70691;PMS5003;58267;51.156;17.044;2024-01-27T11:42:58;5;5;
70691;PMS5003;58267;51.156;17.044;2024-01-27T11:45:23;5;4;
70691;PMS5003;58267;51.156;17.044;2024-01-27T11:47:48;9;9;
70691;PMS5003;58267;51.156;17.044;2024-01-27T11:50:14;6;5;
70691;PMS5003;58267;51.156;17.044;2024-01-27T11:52:40;7;6;
70691;PMS5003;58267;51.156;17.044;2024-01-27T11:55:06;8;7;
70691;PMS5003;58267;51.156;17.044;2024-01-27T11:57:31;7;6;
70691;PMS5003;58267;51.156;17.044;2024-01-27T11:59:56;9;6;
70691;PMS5003;58267;51.156;17.044;2024-01-27T12:02:21;6;5;
70691;PMS5003;58267;51.156;17.044;2024-01-27T12:04:47;6;5;
70691;PMS5003;58267;51.156;17.044;2024-01-27T12:07:11;5;5;
70691;PMS5003;58267;51.156;17.044;2024-01-27T12:09:37;4;4;
70691;PMS5003;58267;51.156;17.044;2024-01-27T12:12:02;5;5;
70691;PMS5003;58267;51.156;17.044;2024-01-27T12:16:53;7;6;
70691;PMS5003;58267;51.156;17.044;2024-01-27T12:19:18;6;4;
70691;PMS5003;58267;51.156;17.044;2024-01-27T12:21:47;6;5;
70691;PMS5003;58267;51.156;17.044;2024-01-27T12:24:13;9;8;
70691;PMS5003;58267;51.156;17.044;2024-01-27T12:26:33;7;6;
70691;PMS5003;58267;51.156;17.044;2024-01-27T12:28:59;4;4;
70691;PMS5003;58267;51.156;17.044;2024-01-27T12:31:24;7;7;
70691;PMS5003;58267;51.156;17.044;2024-01-27T12:33:51;4;4;
70691;PMS5003;58267;51.156;17.044;2024-01-27T12:36:17;4;4;
70691;PMS5003;58267;51.156;17.044;2024-01-27T12:38:41;5;5;
70691;PMS5003;58267;51.156;17.044;2024-01-27T12:41:06;6;4;
70691;PMS5003;58267;51.156;17.044;2024-01-27T12:43:32;5;5;
70691;PMS5003;58267;51.156;17.044;2024-01-27T12:45:57;6;5;
70691;PMS5003;58267;51.156;17.044;2024-01-27T12:48:23;7;4;
70691;PMS5003;58267;51.156;17.044;2024-01-27T12:50:48;4;4;
70691;PMS5003;58267;51.156;17.044;2024-01-27T12:53:13;6;5;
70691;PMS5003;58267;51.156;17.044;2024-01-27T12:55:38;7;6;
70691;PMS5003;58267;51.156;17.044;2024-01-27T12:58:04;5;5;
70691;PMS5003;58267;51.156;17.044;2024-01-27T13:00:29;6;5;
70691;PMS5003;58267;51.156;17.044;2024-01-27T13:02:54;6;5;
70691;PMS5003;58267;51.156;17.044;2024-01-27T13:05:20;4;4;
70691;PMS5003;58267;51.156;17.044;2024-01-27T13:07:45;8;4;
70691;PMS5003;58267;51.156;17.044;2024-01-27T13:10:11;7;7;
70691;PMS5003;58267;51.156;17.044;2024-01-27T13:12:36;4;4;
70691;PMS5003;58267;51.156;17.044;2024-01-27T13:15:01;6;6;
70691;PMS5003;58267;51.156;17.044;2024-01-27T13:17:26;4;4;
70691;PMS5003;58267;51.156;17.044;2024-01-27T13:19:52;5;5;
70691;PMS5003;58267;51.156;17.044;2024-01-27T13:22:17;7;6;
70691;PMS5003;58267;51.156;17.044;2024-01-27T13:24:42;4;4;
70691;PMS5003;58267;51.156;17.044;2024-01-27T13:27:08;8;7;
70691;PMS5003;58267;51.156;17.044;2024-01-27T13:29:33;6;5;
70691;PMS5003;58267;51.156;17.044;2024-01-27T13:31:59;7;6;
70691;PMS5003;58267;51.156;17.044;2024-01-27T13:34:24;5;4;
70691;PMS5003;58267;51.156;17.044;2024-01-27T13:36:49;5;4;
70691;PMS5003;58267;51.156;17.044;2024-01-27T13:39:14;5;5;
70691;PMS5003;58267;51.156;17.044;2024-01-27T13:41:40;5;5;
70691;PMS5003;58267;51.156;17.044;2024-01-27T13:44:05;5;5;
70691;PMS5003;58267;51.156;17.044;2024-01-27T13:46:31;6;5;
70691;PMS5003;58267;51.156;17.044;2024-01-27T13:48:56;7;7;
70691;PMS5003;58267;51.156;17.044;2024-01-27T13:51:21;8;6;
70691;PMS5003;58267;51.156;17.044;2024-01-27T13:53:47;6;6;
70691;PMS5003;58267;51.156;17.044;2024-01-27T13:56:12;5;5;
70691;PMS5003;58267;51.156;17.044;2024-01-27T13:58:37;6;5;
70691;PMS5003;58267;51.156;17.044;2024-01-27T14:01:02;5;3;
70691;PMS5003;58267;51.156;17.044;2024-01-27T14:03:28;6;6;
70691;PMS5003;58267;51.156;17.044;2024-01-27T14:05:54;11;7;
70691;PMS5003;58267;51.156;17.044;2024-01-27T14:08:19;8;6;
70691;PMS5003;58267;51.156;17.044;2024-01-27T14:10:45;9;7;
70691;PMS5003;58267;51.156;17.044;2024-01-27T14:13:10;5;4;
70691;PMS5003;58267;51.156;17.044;2024-01-27T14:15:36;4;4;
70691;PMS5003;58267;51.156;17.044;2024-01-27T14:18:01;6;5;
70691;PMS5003;58267;51.156;17.044;2024-01-27T14:20:26;5;5;
70691;PMS5003;58267;51.156;17.044;2024-01-27T14:22:51;5;5;
70691;PMS5003;58267;51.156;17.044;2024-01-27T14:25:17;7;5;
70691;PMS5003;58267;51.156;17.044;2024-01-27T14:27:42;5;5;
70691;PMS5003;58267;51.156;17.044;2024-01-27T14:30:08;7;7;
70691;PMS5003;58267;51.156;17.044;2024-01-27T14:32:33;6;6;
70691;PMS5003;58267;51.156;17.044;2024-01-27T14:34:58;4;4;
70691;PMS5003;58267;51.156;17.044;2024-01-27T14:37:24;9;7;
70691;PMS5003;58267;51.156;17.044;2024-01-27T14:39:49;9;8;
70691;PMS5003;58267;51.156;17.044;2024-01-27T14:42:14;7;6;
70691;PMS5003;58267;51.156;17.044;2024-01-27T14:44:39;7;5;
70691;PMS5003;58267;51.156;17.044;2024-01-27T14:47:05;10;6;
70691;PMS5003;58267;51.156;17.044;2024-01-27T14:49:30;8;7;
70691;PMS5003;58267;51.156;17.044;2024-01-27T14:51:55;10;9;
70691;PMS5003;58267;51.156;17.044;2024-01-27T14:54:20;5;4;
70691;PMS5003;58267;51.156;17.044;2024-01-27T14:56:45;7;6;
70691;PMS5003;58267;51.156;17.044;2024-01-27T14:59:10;8;7;
70691;PMS5003;58267;51.156;17.044;2024-01-27T15:01:36;6;6;
70691;PMS5003;58267;51.156;17.044;2024-01-27T15:04:01;7;5;
70691;PMS5003;58267;51.156;17.044;2024-01-27T15:06:26;10;9;
70691;PMS5003;58267;51.156;17.044;2024-01-27T15:08:52;7;6;
70691;PMS5003;58267;51.156;17.044;2024-01-27T15:11:17;10;9;
70691;PMS5003;58267;51.156;17.044;2024-01-27T15:13:43;8;7;
70691;PMS5003;58267;51.156;17.044;2024-01-27T15:16:08;6;6;
70691;PMS5003;58267;51.156;17.044;2024-01-27T15:18:33;8;7;
70691;PMS5003;58267;51.156;17.044;2024-01-27T15:20:58;10;9;
70691;PMS5003;58267;51.156;17.044;2024-01-27T15:23:23;9;9;
70691;PMS5003;58267;51.156;17.044;2024-01-27T15:25:49;8;7;
70691;PMS5003;58267;51.156;17.044;2024-01-27T15:28:14;7;7;
70691;PMS5003;58267;51.156;17.044;2024-01-27T15:30:40;10;9;
70691;PMS5003;58267;51.156;17.044;2024-01-27T15:33:05;10;8;
70691;PMS5003;58267;51.156;17.044;2024-01-27T15:35:31;7;6;
70691;PMS5003;58267;51.156;17.044;2024-01-27T15:37:56;8;6;
70691;PMS5003;58267;51.156;17.044;2024-01-27T15:40:21;8;8;
70691;PMS5003;58267;51.156;17.044;2024-01-27T15:42:46;8;7;
70691;PMS5003;58267;51.156;17.044;2024-01-27T15:45:12;8;8;
70691;PMS5003;58267;51.156;17.044;2024-01-27T15:47:37;8;7;
70691;PMS5003;58267;51.156;17.044;2024-01-27T15:50:03;9;8;
70691;PMS5003;58267;51.156;17.044;2024-01-27T15:52:28;8;7;
70691;PMS5003;58267;51.156;17.044;2024-01-27T15:54:53;8;8;
70691;PMS5003;58267;51.156;17.044;2024-01-27T15:57:19;11;10;
70691;PMS5003;58267;51.156;17.044;2024-01-27T15:59:45;10;9;
70691;PMS5003;58267;51.156;17.044;2024-01-27T16:02:10;13;12;
70691;PMS5003;58267;51.156;17.044;2024-01-27T16:04:35;9;8;
70691;PMS5003;58267;51.156;17.044;2024-01-27T16:07:01;11;10;
70691;PMS5003;58267;51.156;17.044;2024-01-27T16:09:26;13;10;
70691;PMS5003;58267;51.156;17.044;2024-01-27T16:11:52;11;10;
70691;PMS5003;58267;51.156;17.044;2024-01-27T16:14:17;11;11;
70691;PMS5003;58267;51.156;17.044;2024-01-27T16:16:43;13;9;
70691;PMS5003;58267;51.156;17.044;2024-01-27T16:19:08;9;8;
70691;PMS5003;58267;51.156;17.044;2024-01-27T16:21:33;12;9;